createdAt,value
2022-10-16T00:01:18.451Z,99156.63
2022-10-16T00:04:06.436Z,99160.00
2022-10-16T00:06:53.854Z,99160.00
2022-10-16T00:09:41.103Z,99161.78
2022-10-16T00:12:28.606Z,99172.09
2022-10-16T00:15:17.649Z,99178.03
2022-10-16T00:18:06.102Z,99166.94
2022-10-16T00:23:41.643Z,99165.16
2022-10-16T00:26:30.643Z,99171.25
2022-10-16T00:29:17.749Z,99161.78
2022-10-16T00:32:06.577Z,99170.44
2022-10-16T00:34:55.611Z,99160.94
2022-10-16T00:37:42.771Z,99175.59
2022-10-16T00:40:30.582Z,99163.53
2022-10-16T00:43:37.863Z,99165.28
2022-10-16T00:46:27.963Z,99174.66
2022-10-16T00:49:19.492Z,99167.88
2022-10-16T00:52:08.330Z,99162.72
2022-10-16T00:54:56.951Z,99165.28
2022-10-16T00:57:46.272Z,99162.72
2022-10-16T01:00:33.747Z,99160.16
2022-10-16T01:03:32.358Z,99169.63
2022-10-16T01:06:27.319Z,99178.19
2022-10-16T01:09:20.053Z,99175.59
2022-10-16T01:12:15.858Z,99175.59
2022-10-16T01:15:11.035Z,99175.59
2022-10-16T01:18:03.666Z,99171.38
2022-10-16T01:20:56.130Z,99163.66
2022-10-16T01:23:54.342Z,99173.97
2022-10-16T01:27:09.241Z,99174.91
2022-10-16T01:29:59.542Z,99181.03
2022-10-16T01:32:54.000Z,99168.00
2022-10-16T01:35:46.142Z,99180.88
2022-10-16T01:38:38.778Z,99186.84
2022-10-16T01:41:32.417Z,99178.31
2022-10-16T01:44:25.132Z,99180.88
2022-10-16T01:47:15.400Z,99193.63
2022-10-16T01:50:06.871Z,99188.59
2022-10-16T01:52:55.300Z,99195.50
2022-10-16T01:55:48.035Z,99202.28
2022-10-16T01:58:39.079Z,99209.22
2022-10-16T02:01:31.314Z,99226.28
2022-10-16T02:04:24.912Z,99219.38
2022-10-16T02:07:14.272Z,99194.56
2022-10-16T02:10:02.738Z,99203.09
2022-10-16T02:12:57.707Z,99189.41
2022-10-16T02:15:45.095Z,99192.78
2022-10-16T02:18:33.991Z,99194.44
2022-10-16T02:21:28.586Z,99188.47
2022-10-16T02:24:25.787Z,99198.78
2022-10-16T02:27:17.445Z,99182.50
2022-10-16T02:30:11.478Z,99184.25
2022-10-16T02:33:02.455Z,99173.97
2022-10-16T02:35:52.959Z,99173.97
2022-10-16T02:38:41.340Z,99189.41
2022-10-16T02:41:29.087Z,99190.34
2022-10-16T02:44:16.209Z,99189.41
2022-10-16T02:47:03.584Z,99200.50
2022-10-16T02:49:50.863Z,99200.50
2022-10-16T02:52:39.279Z,99196.19
2022-10-16T02:55:27.167Z,99198.78
2022-10-16T02:58:14.627Z,99203.91
2022-10-16T03:01:01.907Z,99197.00
2022-10-16T03:03:49.061Z,99194.44
2022-10-16T03:06:37.004Z,99202.16
2022-10-16T03:09:25.727Z,99202.97
2022-10-16T03:12:13.102Z,99197.84
2022-10-16T03:15:00.517Z,99208.13
2022-10-16T03:17:47.641Z,99197.84
2022-10-16T03:20:35.282Z,99197.84
2022-10-16T03:23:22.276Z,99187.53
2022-10-16T03:26:10.910Z,99202.00
2022-10-16T03:28:58.075Z,99202.97
2022-10-16T03:31:45.117Z,99202.00
2022-10-16T03:34:32.339Z,99215.84
2022-10-16T03:37:19.786Z,99216.78
2022-10-16T03:40:08.431Z,99220.03
2022-10-16T03:42:58.621Z,99201.34
2022-10-16T03:45:45.695Z,99210.81
2022-10-16T03:48:33.181Z,99201.34
2022-10-16T03:51:20.572Z,99216.78
2022-10-16T03:54:07.708Z,99202.16
2022-10-16T03:56:55.257Z,99215.97
2022-10-16T03:59:44.009Z,99219.38
2022-10-16T04:02:30.908Z,99226.28
2022-10-16T04:05:18.143Z,99227.09
2022-10-16T04:08:06.261Z,99234.00
2022-10-16T04:10:53.542Z,99238.34
2022-10-16T04:13:40.876Z,99235.75
2022-10-16T04:16:29.822Z,99230.63
2022-10-16T04:19:17.177Z,99231.41
2022-10-16T04:22:04.979Z,99235.75
2022-10-16T04:24:52.129Z,99234.97
2022-10-16T04:27:42.252Z,99237.53
2022-10-16T04:30:32.535Z,99239.28
2022-10-16T04:33:21.135Z,99249.59
2022-10-16T04:36:08.407Z,99255.56
2022-10-16T04:38:56.084Z,99247.00
2022-10-16T04:41:43.633Z,99238.34
2022-10-16T04:44:30.890Z,99234.97
2022-10-16T04:47:17.972Z,99239.28
2022-10-16T04:50:08.176Z,99255.56
2022-10-16T04:52:55.558Z,99253.94
2022-10-16T04:55:44.035Z,99249.59
2022-10-16T04:58:31.579Z,99250.56
2022-10-16T05:01:18.842Z,99238.47
2022-10-16T05:04:06.423Z,99232.53
2022-10-16T05:06:55.042Z,99236.03
2022-10-16T05:09:42.206Z,99240.25
2022-10-16T05:12:29.165Z,99224.91
2022-10-16T05:15:16.879Z,99223.97
2022-10-16T05:18:04.164Z,99240.34
2022-10-16T05:20:51.350Z,99234.41
2022-10-16T05:23:42.752Z,99243.06
2022-10-16T05:26:30.021Z,99242.13
2022-10-16T05:29:17.059Z,99242.13
2022-10-16T05:32:04.307Z,99244.72
2022-10-16T05:34:52.931Z,99234.41
2022-10-16T05:37:40.337Z,99218.16
2022-10-16T05:40:28.970Z,99214.75
2022-10-16T05:43:16.032Z,99222.47
2022-10-16T05:46:06.255Z,99225.88
2022-10-16T05:48:55.250Z,99225.03
2022-10-16T05:51:43.419Z,99224.25
2022-10-16T05:54:30.449Z,99237.91
2022-10-16T05:57:19.048Z,99257.72
2022-10-16T06:00:07.792Z,99263.66
2022-10-16T06:02:59.949Z,99271.41
2022-10-16T06:05:29.172Z,99277.38
2022-10-16T06:07:57.878Z,99281.69
2022-10-16T06:10:26.635Z,99296.22
2022-10-16T06:12:56.625Z,99290.25
2022-10-16T06:15:25.275Z,99285.91
2022-10-16T06:17:53.949Z,99289.41
2022-10-16T06:20:22.633Z,99298.13
2022-10-16T06:22:51.323Z,99300.78
2022-10-16T06:25:19.988Z,99302.44
2022-10-16T06:27:48.943Z,99295.66
2022-10-16T06:30:18.975Z,99305.00
2022-10-16T06:32:47.680Z,99318.72
2022-10-16T06:35:16.556Z,99323.88
2022-10-16T06:37:45.249Z,99319.53
2022-10-16T06:40:15.628Z,99312.59
2022-10-16T06:42:44.524Z,99323.72
2022-10-16T06:45:13.772Z,99321.97
2022-10-16T06:47:43.778Z,99330.38
2022-10-16T06:50:12.521Z,99326.03
2022-10-16T06:52:41.131Z,99326.84
2022-10-16T06:55:10.382Z,99332.00
2022-10-16T06:57:38.989Z,99332.81
2022-10-16T07:00:09.343Z,99336.19
2022-10-16T07:02:37.961Z,99337.97
2022-10-16T07:05:09.065Z,99346.50
2022-10-16T07:07:37.742Z,99354.22
2022-10-16T07:10:07.307Z,99354.09
2022-10-16T07:12:35.956Z,99352.34
2022-10-16T07:15:04.917Z,99349.78
2022-10-16T07:17:33.561Z,99354.78
2022-10-16T07:20:02.325Z,99362.50
2022-10-16T07:22:32.440Z,99373.63
2022-10-16T07:25:01.100Z,99374.41
2022-10-16T07:27:30.945Z,99368.34
2022-10-16T07:30:00.852Z,99376.06
2022-10-16T07:32:31.269Z,99393.94
2022-10-16T07:35:01.010Z,99388.81
2022-10-16T07:37:31.092Z,99384.63
2022-10-16T07:40:00.611Z,99394.66
2022-10-16T07:42:30.362Z,99391.28
2022-10-16T07:44:59.198Z,99395.47
2022-10-16T07:47:28.268Z,99404.03
2022-10-16T07:49:57.347Z,99415.94
2022-10-16T07:52:25.947Z,99413.25
2022-10-16T07:57:29.541Z,99419.06
2022-10-16T07:59:58.983Z,99419.88
2022-10-16T08:02:27.617Z,99418.00
2022-10-16T08:04:56.241Z,99428.31
2022-10-16T08:07:25.007Z,99419.63
2022-10-16T08:09:57.459Z,99410.94
2022-10-16T08:12:26.141Z,99420.31
2022-10-16T08:14:54.810Z,99429.81
2022-10-16T08:17:23.698Z,99429.66
2022-10-16T08:19:52.711Z,99441.63
2022-10-16T08:22:21.326Z,99444.06
2022-10-16T08:24:49.958Z,99439.69
2022-10-16T08:27:19.963Z,99442.97
2022-10-16T08:29:48.642Z,99442.03
2022-10-16T08:32:17.320Z,99449.78
2022-10-16T08:34:45.930Z,99448.81
2022-10-16T08:37:14.881Z,99452.22
2022-10-16T08:39:43.535Z,99475.25
2022-10-16T08:42:31.713Z,99466.69
2022-10-16T08:45:24.227Z,99471.06
2022-10-16T08:48:04.264Z,99456.53
2022-10-16T08:50:35.454Z,99467.66
2022-10-16T08:53:06.435Z,99488.28
2022-10-16T08:55:44.270Z,99497.75
2022-10-16T08:58:18.052Z,99505.34
2022-10-16T09:00:50.836Z,99525.16
2022-10-16T09:03:45.164Z,99533.81
2022-10-16T09:06:32.221Z,99550.25
2022-10-16T09:09:22.681Z,99541.69
2022-10-16T09:11:57.997Z,99537.59
2022-10-16T09:14:52.674Z,99546.31
2022-10-16T09:17:32.881Z,99538.56
2022-10-16T09:20:26.420Z,99539.50
2022-10-16T09:23:15.509Z,99539.63
2022-10-16T09:25:48.947Z,99551.69
2022-10-16T09:28:19.610Z,99564.56
2022-10-16T09:30:50.916Z,99572.28
2022-10-16T09:33:23.195Z,99555.09
2022-10-16T09:35:53.955Z,99541.38
2022-10-16T09:38:30.584Z,99532.72
2022-10-16T09:41:04.046Z,99528.50
2022-10-16T09:43:41.172Z,99531.78
2022-10-16T09:46:27.522Z,99537.59
2022-10-16T09:48:59.320Z,99541.69
2022-10-16T09:51:31.848Z,99541.56
2022-10-16T09:54:02.651Z,99542.25
2022-10-16T09:56:34.095Z,99548.91
2022-10-16T09:59:12.955Z,99541.06
2022-10-16T10:01:47.744Z,99546.88
2022-10-16T10:04:16.987Z,99542.44
2022-10-16T10:06:48.054Z,99542.28
2022-10-16T10:09:23.758Z,99540.41
2022-10-16T10:11:55.648Z,99544.47
2022-10-16T10:14:29.691Z,99542.59
2022-10-16T10:17:17.797Z,99539.75
2022-10-16T10:19:52.710Z,99539.47
2022-10-16T10:22:42.512Z,99546.97
2022-10-16T10:25:34.709Z,99546.56
2022-10-16T10:28:20.760Z,99548.09
2022-10-16T10:30:59.435Z,99545.09
2022-10-16T10:33:39.814Z,99543.91
2022-10-16T10:36:25.251Z,99555.59
2022-10-16T10:38:58.828Z,99551.94
2022-10-16T10:42:05.171Z,99547.50
2022-10-16T10:44:57.008Z,99540.41
2022-10-16T10:47:34.993Z,99552.00
2022-10-16T10:50:16.770Z,99543.19
2022-10-16T10:52:59.177Z,99542.91
2022-10-16T10:55:39.253Z,99546.16
2022-10-16T10:58:51.906Z,99541.69
2022-10-16T11:01:29.007Z,99533.81
2022-10-16T11:04:31.747Z,99533.53
2022-10-16T11:07:04.953Z,99523.09
2022-10-16T11:09:38.195Z,99523.00
2022-10-16T11:12:14.347Z,99518.34
2022-10-16T11:14:49.813Z,99521.63
2022-10-16T11:17:26.204Z,99523.25
2022-10-16T11:20:00.622Z,99519.72
2022-10-16T11:22:36.589Z,99519.56
2022-10-16T11:25:15.481Z,99523.00
2022-10-16T11:27:49.951Z,99530.47
2022-10-16T11:30:23.025Z,99526.09
2022-10-16T11:33:05.768Z,99536.97
2022-10-16T11:35:47.028Z,99535.19
2022-10-16T11:38:28.477Z,99532.50
2022-10-16T11:41:03.234Z,99535.75
2022-10-16T11:43:40.374Z,99542.41
2022-10-16T11:46:15.684Z,99543.09
2022-10-16T11:48:51.833Z,99537.69
2022-10-16T11:51:29.058Z,99531.69
2022-10-16T11:54:05.585Z,99530.59
2022-10-16T11:56:39.549Z,99528.72
2022-10-16T11:59:18.465Z,99541.47
2022-10-16T12:01:50.769Z,99531.94
2022-10-16T12:04:29.496Z,99534.41
2022-10-16T12:07:04.966Z,99535.91
2022-10-16T12:09:39.945Z,99525.44
2022-10-16T12:12:29.224Z,99530.59
2022-10-16T12:15:25.753Z,99535.66
2022-10-16T12:18:03.938Z,99529.00
2022-10-16T12:20:37.280Z,99531.44
2022-10-16T12:23:07.722Z,99532.22
2022-10-16T12:25:47.191Z,99539.03
2022-10-16T12:28:24.001Z,99538.09
2022-10-16T12:30:57.948Z,99534.66
2022-10-16T12:33:29.248Z,99541.63
2022-10-16T12:36:00.093Z,99543.38
2022-10-16T12:38:30.711Z,99539.97
2022-10-16T12:41:04.940Z,99532.22
2022-10-16T12:43:44.402Z,99534.81
2022-10-16T12:46:37.927Z,99529.00
2022-10-16T12:49:33.188Z,99532.50
2022-10-16T12:52:01.924Z,99530.88
2022-10-16T12:54:32.726Z,99529.13
2022-10-16T12:57:22.215Z,99529.13
2022-10-16T13:00:00.832Z,99522.47
2022-10-16T13:03:21.174Z,99536.31
2022-10-16T13:06:07.838Z,99533.03
2022-10-16T13:09:07.300Z,99523.56
2022-10-16T13:11:55.390Z,99538.19
2022-10-16T13:15:08.620Z,99539.19
2022-10-16T13:17:48.004Z,99540.91
2022-10-16T13:20:26.322Z,99544.34
2022-10-16T13:23:06.780Z,99544.34
2022-10-16T13:25:50.770Z,99540.91
2022-10-16T13:28:23.322Z,99541.75
2022-10-16T13:30:57.994Z,99543.34
2022-10-16T13:33:34.771Z,99536.44
2022-10-16T13:36:06.222Z,99538.19
2022-10-16T13:38:37.535Z,99547.59
2022-10-16T13:41:08.647Z,99545.00
2022-10-16T13:43:40.218Z,99550.16
2022-10-16T13:46:15.716Z,99556.28
2022-10-16T13:48:45.117Z,99546.78
2022-10-16T13:51:16.770Z,99552.88
2022-10-16T13:53:46.989Z,99558.84
2022-10-16T13:56:18.094Z,99558.03
2022-10-16T13:58:47.878Z,99548.53
2022-10-16T14:01:30.011Z,99547.72
2022-10-16T14:04:07.371Z,99566.72
2022-10-16T14:06:37.726Z,99567.56
2022-10-16T14:09:10.590Z,99565.09
2022-10-16T14:11:52.363Z,99555.59
2022-10-16T14:14:21.621Z,99554.78
2022-10-16T14:16:51.898Z,99547.84
2022-10-16T14:19:24.806Z,99557.25
2022-10-16T14:21:54.054Z,99554.66
2022-10-16T14:24:33.409Z,99558.03
2022-10-16T14:27:03.566Z,99558.03
2022-10-16T14:29:34.132Z,99559.81
2022-10-16T14:32:26.870Z,99564.00
2022-10-16T14:34:56.674Z,99546.91
2022-10-16T14:37:28.374Z,99547.72
2022-10-16T14:39:58.208Z,99546.91
2022-10-16T14:42:27.956Z,99552.88
2022-10-16T14:44:58.839Z,99555.47
2022-10-16T14:47:29.490Z,99553.69
2022-10-16T14:50:00.046Z,99552.06
2022-10-16T14:52:28.668Z,99550.31
2022-10-16T14:54:57.560Z,99543.34
2022-10-16T14:57:33.916Z,99536.59
2022-10-16T15:00:02.787Z,99544.34
2022-10-16T15:02:35.072Z,99540.13
2022-10-16T15:05:17.546Z,99533.31
2022-10-16T15:07:46.839Z,99548.81
2022-10-16T15:10:16.440Z,99554.78
2022-10-16T15:12:46.130Z,99550.44
2022-10-16T15:15:36.855Z,99556.69
2022-10-16T15:18:07.136Z,99551.66
2022-10-16T15:20:38.553Z,99559.41
2022-10-16T15:23:17.703Z,99555.97
2022-10-16T15:25:49.383Z,99560.22
2022-10-16T15:28:19.580Z,99564.56
2022-10-16T15:30:49.187Z,99561.03
2022-10-16T15:33:22.013Z,99564.56
2022-10-16T15:35:53.294Z,99574.06
2022-10-16T15:38:23.775Z,99569.72
2022-10-16T15:40:52.852Z,99569.72
2022-10-16T15:43:21.551Z,99572.31
2022-10-16T15:46:03.107Z,99568.09
2022-10-16T15:48:34.446Z,99571.59
2022-10-16T15:51:03.168Z,99581.13
2022-10-16T15:53:31.997Z,99589.00
2022-10-16T15:56:03.743Z,99580.31
2022-10-16T15:58:32.579Z,99580.56
2022-10-16T16:01:04.457Z,99585.72
2022-10-16T16:03:35.106Z,99585.72
2022-10-16T16:06:07.649Z,99585.88
2022-10-16T16:08:37.163Z,99587.66
2022-10-16T16:11:08.643Z,99583.41
2022-10-16T16:13:39.137Z,99592.09
2022-10-16T16:16:09.781Z,99594.69
2022-10-16T16:18:40.435Z,99591.44
2022-10-16T16:21:10.074Z,99596.59
2022-10-16T16:23:38.775Z,99590.59
2022-10-16T16:26:11.183Z,99592.38
2022-10-16T16:28:41.453Z,99593.31
2022-10-16T16:31:11.342Z,99594.25
2022-10-16T16:33:41.494Z,99604.56
2022-10-16T16:36:15.315Z,99595.22
2022-10-16T16:38:44.679Z,99601.34
2022-10-16T16:41:14.734Z,99601.47
2022-10-16T16:43:44.459Z,99599.03
2022-10-16T16:46:13.702Z,99596.59
2022-10-16T16:48:44.413Z,99607.00
2022-10-16T16:51:17.234Z,99603.63
2022-10-16T16:53:46.844Z,99598.59
2022-10-16T16:56:16.128Z,99605.53
2022-10-16T16:58:48.746Z,99615.97
2022-10-16T17:01:20.757Z,99614.34
2022-10-16T17:03:53.910Z,99622.31
2022-10-16T17:06:24.786Z,99629.41
2022-10-16T17:08:53.446Z,99632.25
2022-10-16T17:11:24.977Z,99634.00
2022-10-16T17:13:56.741Z,99643.50
2022-10-16T17:16:29.923Z,99632.47
2022-10-16T17:19:02.598Z,99631.81
2022-10-16T17:21:33.096Z,99635.34
2022-10-16T17:24:02.249Z,99626.09
2022-10-16T17:26:32.408Z,99628.81
2022-10-16T17:29:03.262Z,99633.16
2022-10-16T17:31:34.035Z,99626.50
2022-10-16T17:34:08.106Z,99633.38
2022-10-16T17:36:38.969Z,99635.41
2022-10-16T17:39:11.864Z,99637.97
2022-10-16T17:41:40.836Z,99633.75
2022-10-16T17:44:09.761Z,99637.41
2022-10-16T17:46:41.104Z,99651.09
2022-10-16T17:49:11.573Z,99642.69
2022-10-16T17:51:40.383Z,99646.09
2022-10-16T17:54:09.556Z,99646.22
2022-10-16T17:56:38.317Z,99642.00
2022-10-16T17:59:07.752Z,99657.59
2022-10-16T18:01:40.499Z,99654.22
2022-10-16T18:04:13.255Z,99658.66
2022-10-16T18:06:43.984Z,99660.44
2022-10-16T18:09:18.173Z,99660.56
2022-10-16T18:11:49.140Z,99668.31
2022-10-16T18:14:19.150Z,99660.69
2022-10-16T18:16:47.845Z,99667.59
2022-10-16T18:19:17.832Z,99666.00
2022-10-16T18:21:46.849Z,99678.03
2022-10-16T18:24:15.423Z,99667.88
2022-10-16T18:26:44.177Z,99664.47
2022-10-16T18:29:14.393Z,99668.81
2022-10-16T18:31:43.800Z,99674.94
2022-10-16T18:34:13.251Z,99673.28
2022-10-16T18:36:44.053Z,99672.59
2022-10-16T18:39:16.873Z,99669.31
2022-10-16T18:41:45.844Z,99671.91
2022-10-16T18:44:14.826Z,99674.63
2022-10-16T18:46:43.506Z,99671.19
2022-10-16T18:49:12.220Z,99675.56
2022-10-16T18:51:44.128Z,99675.69
2022-10-16T18:54:14.275Z,99666.31
2022-10-16T18:56:43.283Z,99671.47
2022-10-16T18:59:12.118Z,99680.13
2022-10-16T19:01:42.684Z,99683.53
2022-10-16T19:04:14.063Z,99681.06
2022-10-16T19:06:46.478Z,99676.88
2022-10-16T19:09:16.855Z,99687.19
2022-10-16T19:11:45.977Z,99677.00
2022-10-16T19:14:16.378Z,99686.47
2022-10-16T19:16:45.571Z,99682.25
2022-10-16T19:19:17.265Z,99678.88
2022-10-16T19:21:48.209Z,99686.75
2022-10-16T19:24:18.028Z,99683.31
2022-10-16T19:26:46.654Z,99685.91
2022-10-16T19:29:15.434Z,99686.03
2022-10-16T19:31:44.178Z,99684.44
2022-10-16T19:34:13.352Z,99691.31
2022-10-16T19:36:42.489Z,99693.09
2022-10-16T19:39:17.184Z,99697.53
2022-10-16T19:41:47.454Z,99700.09
2022-10-16T19:44:18.428Z,99697.66
2022-10-16T19:46:49.266Z,99702.00
2022-10-16T19:49:22.172Z,99706.34
2022-10-16T19:51:52.201Z,99710.69
2022-10-16T19:54:22.431Z,99706.47
2022-10-16T19:56:51.024Z,99710.00
2022-10-16T19:59:20.359Z,99712.56
2022-10-16T20:01:49.506Z,99710.09
2022-10-16T20:04:36.689Z,99712.81
2022-10-16T20:07:24.382Z,99713.78
2022-10-16T20:10:13.119Z,99719.84
2022-10-16T20:13:00.024Z,99710.63
2022-10-16T20:15:47.679Z,99714.13
2022-10-16T20:18:35.520Z,99715.91
2022-10-16T20:21:26.479Z,99726.31
2022-10-16T20:24:13.732Z,99721.19
2022-10-16T20:27:02.311Z,99725.63
2022-10-16T20:29:49.725Z,99722.22
2022-10-16T20:32:36.840Z,99728.31
2022-10-16T20:35:23.969Z,99737.91
2022-10-16T20:38:12.499Z,99740.50
2022-10-16T20:41:05.573Z,99739.00
2022-10-16T20:43:56.133Z,99739.94
2022-10-16T20:46:43.542Z,99749.53
2022-10-16T20:49:40.149Z,99755.53
2022-10-16T20:52:27.804Z,99754.69
2022-10-16T20:55:16.125Z,99760.75
2022-10-16T20:58:04.892Z,99772.84
2022-10-16T21:00:53.339Z,99770.25
2022-10-16T21:03:40.791Z,99769.44
2022-10-16T21:06:28.035Z,99767.00
2022-10-16T21:09:15.186Z,99769.59
2022-10-16T21:12:02.055Z,99771.44
2022-10-16T21:15:12.978Z,99767.09
2022-10-16T21:17:57.985Z,99764.66
2022-10-16T21:20:45.073Z,99774.94
2022-10-16T21:23:34.276Z,99774.28
2022-10-16T21:26:26.175Z,99771.69
2022-10-16T21:29:13.339Z,99770.84
2022-10-16T21:32:00.789Z,99770.06
2022-10-16T21:34:49.094Z,99777.78
2022-10-16T21:37:36.408Z,99773.56
2022-10-16T21:40:23.843Z,99773.56
2022-10-16T21:43:11.473Z,99770.97
2022-10-16T21:45:58.730Z,99779.66
2022-10-16T21:48:47.134Z,99778.84
2022-10-16T21:51:38.915Z,99781.41
2022-10-16T21:54:26.277Z,99780.59
2022-10-16T21:57:13.654Z,99778.97
2022-10-16T22:00:02.195Z,99773.81
2022-10-16T22:02:58.543Z,99777.28
2022-10-16T22:05:45.471Z,99774.03
2022-10-16T22:08:34.917Z,99781.75
2022-10-16T22:11:24.932Z,99778.34
2022-10-16T22:14:16.308Z,99777.53
2022-10-16T22:17:03.640Z,99791.34
2022-10-16T22:19:51.065Z,99779.41
2022-10-16T22:22:38.191Z,99784.53
2022-10-16T22:25:26.683Z,99791.47
2022-10-16T22:28:14.152Z,99796.75
2022-10-16T22:31:03.185Z,99798.38
2022-10-16T22:33:55.424Z,99801.88
2022-10-16T22:36:42.489Z,99795.94
2022-10-16T22:39:29.592Z,99789.94
2022-10-16T22:42:17.993Z,99789.94
2022-10-16T22:45:06.050Z,99792.50
2022-10-16T22:47:53.146Z,99791.72
2022-10-16T22:50:40.439Z,99794.28
2022-10-16T22:53:27.855Z,99800.38
2022-10-16T22:56:16.345Z,99807.16
2022-10-16T22:59:05.276Z,99801.28
2022-10-16T23:01:52.431Z,99809.03
2022-10-16T23:04:39.723Z,99806.56
2022-10-16T23:07:26.725Z,99805.03
2022-10-16T23:10:14.181Z,99804.25
2022-10-16T23:13:01.583Z,99806.94
2022-10-16T23:15:50.423Z,99806.09
2022-10-16T23:18:37.854Z,99819.09
2022-10-16T23:21:26.757Z,99813.81
2022-10-16T23:24:13.925Z,99818.16
2022-10-16T23:27:01.277Z,99815.72
2022-10-16T23:29:49.585Z,99824.25
2022-10-16T23:32:38.417Z,99818.28
2022-10-16T23:35:25.771Z,99819.94
2022-10-16T23:38:12.863Z,99828.59
2022-10-16T23:41:00.406Z,99838.88
2022-10-16T23:43:48.088Z,99843.19
2022-10-16T23:46:35.489Z,99844.28
2022-10-16T23:49:24.397Z,99844.97
2022-10-16T23:52:11.563Z,99846.84
2022-10-16T23:54:58.669Z,99840.88
2022-10-16T23:57:45.725Z,99852.94
